createdAt,value
2022-09-04T00:00:33.240Z,67.70
2022-09-04T00:03:15.592Z,67.60
2022-09-04T00:05:42.207Z,67.32
2022-09-04T00:08:20.972Z,67.27
2022-09-04T00:10:55.872Z,67.33
2022-09-04T00:13:24.011Z,67.85
2022-09-04T00:16:05.660Z,67.39
2022-09-04T00:18:38.137Z,67.73
2022-09-04T00:21:10.861Z,67.74
2022-09-04T00:23:41.827Z,67.27
2022-09-04T00:26:20.866Z,67.55
2022-09-04T00:28:49.596Z,66.89
2022-09-04T00:31:29.076Z,67.10
2022-09-04T00:33:58.658Z,67.48
2022-09-04T00:36:27.701Z,67.85
2022-09-04T00:38:57.647Z,67.93
2022-09-04T00:41:28.343Z,67.69
2022-09-04T00:44:28.353Z,68.16
2022-09-04T00:47:13.660Z,67.79
2022-09-04T00:49:46.921Z,67.67
2022-09-04T00:52:36.405Z,68.42
2022-09-04T00:55:03.577Z,67.80
2022-09-04T00:57:48.932Z,67.97
2022-09-04T01:00:17.377Z,67.86
2022-09-04T01:02:43.899Z,68.07
2022-09-04T01:05:20.390Z,68.07
2022-09-04T01:08:00.505Z,68.08
2022-09-04T01:10:39.008Z,68.01
2022-09-04T01:13:16.789Z,68.39
2022-09-04T01:15:55.557Z,68.31
2022-09-04T01:18:29.708Z,68.56
2022-09-04T01:21:10.852Z,68.18
2022-09-04T01:23:57.651Z,68.57
2022-09-04T01:26:33.453Z,68.36
2022-09-04T01:29:15.243Z,68.47
2022-09-04T01:31:47.913Z,68.31
2022-09-04T01:34:14.408Z,68.38
2022-09-04T01:36:46.880Z,68.42
2022-09-04T01:39:13.629Z,68.47
2022-09-04T01:41:47.221Z,68.54
2022-09-04T01:44:13.979Z,68.76
2022-09-04T01:46:40.499Z,68.69
2022-09-04T01:49:25.788Z,68.88
2022-09-04T01:52:10.579Z,68.46
2022-09-04T01:54:50.773Z,68.31
2022-09-04T01:57:20.425Z,68.49
2022-09-04T01:59:53.582Z,68.56
2022-09-04T02:02:23.287Z,68.65
2022-09-04T02:04:52.850Z,68.71
2022-09-04T02:07:19.330Z,68.50
2022-09-04T02:09:56.661Z,68.75
2022-09-04T02:12:23.121Z,68.58
2022-09-04T02:15:09.926Z,68.63
2022-09-04T02:17:54.981Z,68.96
2022-09-04T02:20:24.242Z,68.77
2022-09-04T02:22:50.722Z,68.61
2022-09-04T02:25:17.200Z,68.71
2022-09-04T02:27:43.633Z,69.20
2022-09-04T02:30:12.113Z,68.98
2022-09-04T02:32:44.610Z,69.30
2022-09-04T02:35:18.118Z,69.02
2022-09-04T02:38:13.911Z,68.76
2022-09-04T02:40:50.742Z,68.94
2022-09-04T02:43:23.539Z,69.06
2022-09-04T02:46:00.062Z,68.80
2022-09-04T02:48:46.795Z,68.78
2022-09-04T02:51:13.845Z,69.43
2022-09-04T02:54:12.954Z,69.55
2022-09-04T02:56:58.649Z,69.45
2022-09-04T02:59:44.105Z,69.77
2022-09-04T03:02:33.993Z,69.46
2022-09-04T03:05:08.145Z,69.97
2022-09-04T03:07:48.565Z,69.58
2022-09-04T03:10:15.083Z,69.68
2022-09-04T03:12:47.992Z,70.30
2022-09-04T03:15:14.570Z,70.31
2022-09-04T03:17:53.494Z,70.53
2022-09-04T03:20:25.315Z,70.63
2022-09-04T03:22:55.687Z,70.49
2022-09-04T03:25:33.757Z,70.12
2022-09-04T03:28:00.666Z,70.05
2022-09-04T03:30:28.069Z,70.13
2022-09-04T03:33:05.166Z,70.07
2022-09-04T03:35:37.718Z,70.10
2022-09-04T03:38:28.586Z,70.14
2022-09-04T03:41:03.080Z,70.31
2022-09-04T03:43:47.502Z,69.95
2022-09-04T03:46:20.189Z,70.00
2022-09-04T03:48:55.283Z,70.04
2022-09-04T03:51:25.547Z,69.37
2022-09-04T03:54:12.253Z,69.37
2022-09-04T03:56:54.199Z,69.44
2022-09-04T03:59:20.684Z,69.32
2022-09-04T04:01:53.254Z,69.03
2022-09-04T04:04:38.462Z,69.09
2022-09-04T04:07:07.800Z,69.48
2022-09-04T04:09:43.544Z,69.44
2022-09-04T04:12:27.420Z,69.44
2022-09-04T04:15:03.333Z,69.35
2022-09-04T04:17:46.188Z,69.50
2022-09-04T04:20:12.670Z,69.81
2022-09-04T04:22:39.148Z,69.43
2022-09-04T04:25:12.679Z,69.51
2022-09-04T04:27:59.095Z,69.15
2022-09-04T04:30:30.696Z,69.29
2022-09-04T04:33:20.804Z,69.43
2022-09-04T04:36:05.687Z,69.32
2022-09-04T04:38:41.635Z,69.32
2022-09-04T04:41:08.626Z,69.56
2022-09-04T04:43:53.895Z,68.98
2022-09-04T04:46:20.363Z,68.92
2022-09-04T04:49:05.586Z,69.54
2022-09-04T04:51:41.265Z,69.45
2022-09-04T04:54:13.878Z,69.76
2022-09-04T04:56:51.083Z,69.77
2022-09-04T04:59:23.757Z,70.07
2022-09-04T05:01:56.336Z,69.74
2022-09-04T05:04:36.076Z,69.29
2022-09-04T05:07:21.730Z,69.40
2022-09-04T05:10:06.995Z,69.30
2022-09-04T05:12:49.968Z,69.17
2022-09-04T05:15:28.721Z,69.28
2022-09-04T05:18:01.818Z,68.97
2022-09-04T05:20:43.565Z,68.64
2022-09-04T05:23:28.736Z,68.71
2022-09-04T05:26:08.053Z,68.76
2022-09-04T05:28:34.536Z,68.72
2022-09-04T05:31:24.424Z,68.61
2022-09-04T05:33:59.265Z,68.45
2022-09-04T05:36:28.825Z,67.83
2022-09-04T05:39:06.352Z,68.00
2022-09-04T05:41:33.044Z,67.84
2022-09-04T05:44:02.575Z,67.64
2022-09-04T05:46:44.156Z,67.77
2022-09-04T05:49:13.530Z,67.72
2022-09-04T05:51:48.930Z,67.63
2022-09-04T05:54:18.443Z,67.81
2022-09-04T05:56:48.132Z,67.96
2022-09-04T05:59:21.691Z,68.85
2022-09-04T06:01:57.602Z,69.24
2022-09-04T06:04:36.414Z,69.19
2022-09-04T06:07:09.127Z,69.63
2022-09-04T06:09:51.084Z,69.96
2022-09-04T06:12:35.465Z,69.93
2022-09-04T06:15:11.041Z,69.76
2022-09-04T06:17:40.285Z,69.68
2022-09-04T06:20:25.640Z,68.62
2022-09-04T06:23:03.107Z,67.89
2022-09-04T06:25:37.730Z,67.57
2022-09-04T06:28:22.874Z,67.95
2022-09-04T06:30:52.230Z,68.42
2022-09-04T06:33:18.904Z,69.15
2022-09-04T06:35:48.506Z,69.54
2022-09-04T06:38:44.187Z,69.01
2022-09-04T06:41:20.575Z,67.65
2022-09-04T06:43:50.253Z,67.34
2022-09-04T06:46:24.038Z,67.40
2022-09-04T06:49:13.781Z,67.19
2022-09-04T06:51:40.304Z,67.25
2022-09-04T06:54:24.287Z,66.60
2022-09-04T06:57:25.330Z,65.43
2022-09-04T06:59:51.923Z,64.87
2022-09-04T07:02:22.026Z,65.26
2022-09-04T07:04:48.573Z,65.97
2022-09-04T07:07:18.161Z,65.81
2022-09-04T07:09:49.554Z,64.74
2022-09-04T07:12:36.391Z,63.68
2022-09-04T07:15:12.420Z,62.91
2022-09-04T07:17:56.483Z,62.60
2022-09-04T07:20:25.839Z,63.01
2022-09-04T07:22:52.321Z,63.48
2022-09-04T07:25:33.067Z,63.46
2022-09-04T07:28:25.968Z,62.11
2022-09-04T07:30:57.131Z,61.24
2022-09-04T07:33:35.748Z,60.98
2022-09-04T07:36:14.400Z,61.36
2022-09-04T07:38:50.667Z,61.79
2022-09-04T07:41:37.757Z,61.63
2022-09-04T07:44:13.853Z,61.10
2022-09-04T07:47:00.135Z,60.92
2022-09-04T07:49:26.615Z,61.37
2022-09-04T07:51:56.361Z,61.84
2022-09-04T07:54:41.913Z,62.11
2022-09-04T07:57:14.599Z,62.66
2022-09-04T07:59:49.580Z,62.54
2022-09-04T08:02:34.834Z,62.37
2022-09-04T08:05:08.752Z,62.68
2022-09-04T08:07:38.283Z,62.48
2022-09-04T08:10:14.337Z,62.62
2022-09-04T08:12:56.312Z,62.33
2022-09-04T08:15:30.197Z,62.46
2022-09-04T08:18:11.821Z,62.69
2022-09-04T08:20:49.279Z,62.11
2022-09-04T08:23:24.539Z,62.11
2022-09-04T08:25:54.578Z,62.00
2022-09-04T08:28:33.406Z,61.43
2022-09-04T08:31:08.082Z,61.53
2022-09-04T08:33:51.186Z,61.31
2022-09-04T08:36:25.373Z,60.95
2022-09-04T08:39:10.913Z,60.91
2022-09-04T08:41:49.727Z,60.64
2022-09-04T08:44:37.904Z,60.71
2022-09-04T08:47:17.752Z,60.57
2022-09-04T08:49:52.065Z,60.62
2022-09-04T08:52:21.506Z,59.68
2022-09-04T08:55:00.731Z,58.32
2022-09-04T08:57:50.078Z,50.22
2022-09-04T09:00:20.500Z,38.52
2022-09-04T09:03:05.905Z,32.22
2022-09-04T09:05:53.526Z,28.14
2022-09-04T09:08:38.910Z,25.32
2022-09-04T09:11:24.203Z,22.90
2022-09-04T09:13:53.752Z,22.19
2022-09-04T09:16:21.541Z,20.21
2022-09-04T09:19:06.661Z,19.39
2022-09-04T09:22:05.751Z,17.10
2022-09-04T09:24:51.478Z,18.31
2022-09-04T09:27:33.225Z,17.60
2022-09-04T09:30:02.834Z,16.09
2022-09-04T09:32:29.309Z,16.21
2022-09-04T09:35:08.688Z,15.37
2022-09-04T09:37:45.056Z,14.37
2022-09-04T09:40:11.513Z,14.99
2022-09-04T09:43:16.666Z,13.81
2022-09-04T09:46:01.726Z,14.03
2022-09-04T09:48:30.962Z,13.42
2022-09-04T09:51:15.953Z,12.84
2022-09-04T09:54:01.417Z,12.31
2022-09-04T09:56:30.758Z,12.29
2022-09-04T09:59:06.482Z,12.96
2022-09-04T10:02:07.850Z,11.48
2022-09-04T10:04:53.199Z,12.05
2022-09-04T10:07:29.797Z,12.02
2022-09-04T10:10:24.218Z,11.28
2022-09-04T10:12:50.752Z,10.91
2022-09-04T10:15:30.330Z,12.94
2022-09-04T10:18:06.041Z,13.88
2022-09-04T10:20:40.760Z,12.30
2022-09-04T10:23:30.860Z,11.81
2022-09-04T10:26:15.870Z,10.92
2022-09-04T10:29:04.160Z,10.54
2022-09-04T10:31:45.912Z,9.98
2022-09-04T10:34:20.265Z,10.47
2022-09-04T10:37:13.220Z,10.44
2022-09-04T10:40:17.628Z,9.98
2022-09-04T10:42:57.709Z,9.71
2022-09-04T10:45:24.395Z,9.59
2022-09-04T10:48:06.318Z,9.35
2022-09-04T10:50:54.927Z,9.21
2022-09-04T10:53:31.505Z,9.43
2022-09-04T10:56:22.067Z,9.42
2022-09-04T10:58:48.607Z,9.48
2022-09-04T11:01:35.650Z,9.32
2022-09-04T11:04:19.738Z,8.49
2022-09-04T11:06:47.078Z,8.26
2022-09-04T11:09:13.751Z,8.55
2022-09-04T11:11:43.443Z,8.82
2022-09-04T11:14:23.578Z,8.94
2022-09-04T11:16:59.971Z,9.08
2022-09-04T11:19:45.351Z,8.89
2022-09-04T11:22:34.457Z,8.49
2022-09-04T11:25:19.791Z,8.72
2022-09-04T11:27:59.273Z,8.52
2022-09-04T11:30:36.421Z,9.23
2022-09-04T11:33:04.211Z,9.04
2022-09-04T11:35:49.777Z,9.29
2022-09-04T11:38:22.590Z,10.87
2022-09-04T11:41:07.970Z,13.03
2022-09-04T11:43:36.802Z,11.82
2022-09-04T11:46:17.959Z,11.83
2022-09-04T11:48:56.371Z,13.06
2022-09-04T11:51:26.053Z,14.04
2022-09-04T11:54:05.038Z,14.31
2022-09-04T11:56:50.557Z,13.89
2022-09-04T11:59:17.086Z,14.31
2022-09-04T12:01:52.602Z,17.01
2022-09-04T12:04:34.402Z,17.78
2022-09-04T12:07:12.412Z,18.65
2022-09-04T12:09:59.190Z,14.86
2022-09-04T12:12:45.393Z,13.58
2022-09-04T12:15:30.599Z,12.11
2022-09-04T12:18:04.097Z,11.13
2022-09-04T12:20:41.143Z,10.38
2022-09-04T12:23:26.574Z,14.72
2022-09-04T12:26:01.354Z,18.09
2022-09-04T12:28:27.803Z,19.03
2022-09-04T12:30:54.298Z,21.32
2022-09-04T12:33:26.802Z,23.83
2022-09-04T12:35:56.240Z,24.29
2022-09-04T12:38:35.988Z,25.26
2022-09-04T12:41:05.556Z,26.29
2022-09-04T12:43:45.305Z,25.85
2022-09-04T12:46:21.643Z,27.72
2022-09-04T12:49:08.391Z,26.85
2022-09-04T12:52:01.186Z,28.09
2022-09-04T12:54:27.774Z,28.08
2022-09-04T12:57:17.391Z,28.03
2022-09-04T12:59:46.938Z,27.95
2022-09-04T13:02:24.215Z,29.04
2022-09-04T13:04:57.904Z,30.09
2022-09-04T13:07:33.597Z,30.54
2022-09-04T13:10:09.008Z,30.17
2022-09-04T13:12:41.739Z,29.61
2022-09-04T13:15:11.177Z,30.89
2022-09-04T13:17:58.244Z,31.38
2022-09-04T13:20:39.042Z,30.11
2022-09-04T13:23:05.526Z,31.94
2022-09-04T13:25:52.466Z,32.10
2022-09-04T13:28:28.300Z,31.17
2022-09-04T13:31:00.408Z,30.65
2022-09-04T13:33:39.707Z,31.30
2022-09-04T13:36:16.488Z,31.08
2022-09-04T13:38:42.982Z,30.95
2022-09-04T13:41:09.528Z,30.04
2022-09-04T13:43:43.983Z,31.40
2022-09-04T13:46:14.609Z,30.31
2022-09-04T13:49:14.846Z,29.94
2022-09-04T13:52:03.165Z,29.16
2022-09-04T13:54:38.909Z,30.17
2022-09-04T13:57:13.787Z,30.05
2022-09-04T13:59:41.974Z,29.08
2022-09-04T14:02:10.225Z,30.30
2022-09-04T14:04:48.097Z,28.53
2022-09-04T14:07:21.101Z,30.20
2022-09-04T14:09:49.513Z,29.97
2022-09-04T14:12:35.190Z,29.68
2022-09-04T14:15:08.019Z,29.41
2022-09-04T14:17:55.217Z,29.17
2022-09-04T14:20:24.550Z,29.43
2022-09-04T14:23:03.490Z,29.71
2022-09-04T14:25:52.922Z,30.41
2022-09-04T14:28:31.950Z,29.65
2022-09-04T14:31:10.325Z,31.26
2022-09-04T14:33:55.460Z,29.56
2022-09-04T14:36:28.249Z,30.04
2022-09-04T14:39:15.102Z,30.77
2022-09-04T14:41:52.098Z,29.86
2022-09-04T14:44:24.958Z,28.52
2022-09-04T14:46:59.432Z,28.36
2022-09-04T14:49:31.907Z,28.81
2022-09-04T14:52:10.961Z,30.69
2022-09-04T14:54:43.855Z,27.94
2022-09-04T14:57:17.726Z,28.89
2022-09-04T15:00:10.187Z,30.30
2022-09-04T15:02:42.353Z,30.78
2022-09-04T15:05:18.188Z,30.06
2022-09-04T15:07:46.592Z,29.21
2022-09-04T15:10:35.325Z,31.00
2022-09-04T15:13:05.689Z,30.70
2022-09-04T15:15:35.497Z,31.11
2022-09-04T15:18:20.213Z,29.65
2022-09-04T15:21:05.114Z,30.07
2022-09-04T15:23:35.511Z,30.61
2022-09-04T15:26:05.075Z,29.72
2022-09-04T15:28:40.624Z,29.82
2022-09-04T15:31:17.086Z,29.25
2022-09-04T15:33:45.785Z,30.37
2022-09-04T15:36:18.182Z,28.65
2022-09-04T15:38:52.483Z,29.33
2022-09-04T15:41:26.884Z,30.25
2022-09-04T15:44:12.301Z,29.19
2022-09-04T15:46:46.518Z,30.13
2022-09-04T15:49:32.002Z,29.76
2022-09-04T15:52:07.407Z,29.89
2022-09-04T15:54:37.002Z,30.08
2022-09-04T15:57:16.396Z,29.13
2022-09-04T16:00:03.126Z,31.39
2022-09-04T16:02:54.762Z,30.82
2022-09-04T16:05:24.023Z,29.87
2022-09-04T16:08:03.603Z,29.82
2022-09-04T16:10:42.849Z,32.08
2022-09-04T16:13:29.709Z,31.89
2022-09-04T16:16:04.426Z,32.58
2022-09-04T16:18:37.649Z,31.31
2022-09-04T16:21:10.953Z,31.02
2022-09-04T16:23:38.791Z,33.07
2022-09-04T16:26:15.140Z,32.64
2022-09-04T16:28:47.355Z,31.57
2022-09-04T16:31:15.705Z,33.37
2022-09-04T16:33:48.489Z,33.07
2022-09-04T16:36:21.292Z,32.98
2022-09-04T16:38:52.358Z,33.06
2022-09-04T16:41:25.644Z,33.65
2022-09-04T16:44:07.589Z,33.55
2022-09-04T16:46:37.493Z,33.23
2022-09-04T16:49:07.313Z,33.75
2022-09-04T16:51:40.362Z,33.84
2022-09-04T16:54:08.497Z,31.97
2022-09-04T16:56:40.556Z,33.83
2022-09-04T16:59:10.278Z,33.59
2022-09-04T17:01:43.876Z,33.75
2022-09-04T17:04:14.533Z,34.19
2022-09-04T17:06:56.318Z,34.11
2022-09-04T17:09:38.889Z,35.01
2022-09-04T17:12:24.196Z,34.81
2022-09-04T17:14:56.635Z,33.62
2022-09-04T17:17:30.207Z,33.92
2022-09-04T17:20:01.225Z,34.78
2022-09-04T17:29:03.445Z,34.29
2022-09-04T17:29:07.539Z,35.54
2022-09-04T17:29:14.171Z,34.81
2022-09-04T17:31:23.155Z,35.92
2022-09-04T17:40:03.562Z,34.86
2022-09-04T17:40:53.292Z,34.88
2022-09-04T17:41:31.264Z,34.44
2022-09-04T17:42:32.398Z,35.16
2022-09-04T17:45:11.108Z,35.01
2022-09-04T17:47:42.848Z,35.34
2022-09-04T17:50:16.412Z,34.74
2022-09-04T17:53:01.885Z,35.50
2022-09-04T17:55:30.648Z,34.86
2022-09-04T17:58:04.709Z,35.14
2022-09-04T18:00:36.879Z,35.99
2022-09-04T18:03:12.809Z,36.25
2022-09-04T18:05:48.636Z,36.54
2022-09-04T18:08:26.567Z,36.58
2022-09-04T18:11:03.160Z,36.67
2022-09-04T18:13:38.717Z,37.16
2022-09-04T18:16:17.788Z,37.11
2022-09-04T18:18:55.888Z,37.21
2022-09-04T18:21:26.613Z,37.15
2022-09-04T18:24:07.782Z,37.15
2022-09-04T18:26:55.114Z,36.74
2022-09-04T18:29:56.886Z,36.75
2022-09-04T18:37:09.009Z,36.68
2022-09-04T18:37:20.594Z,37.57
2022-09-04T18:38:14.301Z,37.70
2022-09-04T18:45:30.928Z,37.35
2022-09-04T18:50:20.951Z,37.18
2022-09-04T18:50:38.073Z,38.05
2022-09-04T18:50:39.644Z,37.73
2022-09-04T18:52:20.383Z,37.79
2022-09-04T18:54:50.986Z,38.30
2022-09-04T18:57:40.433Z,38.21
2022-09-04T19:00:09.746Z,38.37
2022-09-04T19:02:52.804Z,38.43
2022-09-04T19:05:21.009Z,38.17
2022-09-04T19:07:47.580Z,38.96
2022-09-04T19:10:21.444Z,38.69
2022-09-04T19:12:50.785Z,39.59
2022-09-04T19:15:23.521Z,39.15
2022-09-04T19:18:23.435Z,39.54
2022-09-04T19:20:52.722Z,39.74
2022-09-04T19:23:28.355Z,40.23
2022-09-04T19:26:00.092Z,40.29
2022-09-04T19:28:52.577Z,39.92
2022-09-04T19:31:49.287Z,39.96
2022-09-04T19:34:15.911Z,40.14
2022-09-04T19:36:43.856Z,40.82
2022-09-04T19:46:00.355Z,40.87
2022-09-04T19:46:00.739Z,41.22
2022-09-04T19:46:16.322Z,41.17
2022-09-04T19:48:23.820Z,40.93
2022-09-04T19:53:30.915Z,41.08
2022-09-04T19:54:03.182Z,41.04
2022-09-04T19:56:29.834Z,41.47
2022-09-04T19:59:12.234Z,41.58
2022-09-04T20:01:42.999Z,41.10
2022-09-04T20:04:18.547Z,41.51
2022-09-04T20:06:50.794Z,40.99
2022-09-04T20:09:30.809Z,41.21
2022-09-04T20:12:08.987Z,40.77
2022-09-04T20:14:46.439Z,40.93
2022-09-04T20:17:22.446Z,41.23
2022-09-04T20:19:56.221Z,40.98
2022-09-04T20:22:28.737Z,41.45
2022-09-04T20:25:15.554Z,41.31
2022-09-04T20:27:46.054Z,41.95
2022-09-04T20:30:24.900Z,41.64
2022-09-04T20:32:57.792Z,42.08
2022-09-04T20:35:32.856Z,42.28
2022-09-04T20:38:12.370Z,42.99
2022-09-04T20:40:44.700Z,42.76
2022-09-04T20:43:19.357Z,42.78
2022-09-04T20:50:20.044Z,43.38
2022-09-04T20:52:48.762Z,43.37
2022-09-04T20:52:49.560Z,43.69
2022-09-04T20:54:57.315Z,43.95
2022-09-04T21:01:55.069Z,44.19
2022-09-04T21:03:07.336Z,43.97
2022-09-04T21:03:27.923Z,43.85
2022-09-04T21:05:54.257Z,44.88
2022-09-04T21:08:27.261Z,44.51
2022-09-04T21:10:59.648Z,45.18
2022-09-04T21:13:41.040Z,44.81
2022-09-04T21:16:25.989Z,44.87
2022-09-04T21:19:27.472Z,45.48
2022-09-04T21:22:00.560Z,45.77
2022-09-04T21:24:27.131Z,45.52
2022-09-04T21:26:59.837Z,45.34
2022-09-04T21:29:29.545Z,45.38
2022-09-04T21:32:07.152Z,45.69
2022-09-04T21:34:43.961Z,45.78
2022-09-04T21:37:30.931Z,45.66
2022-09-04T21:39:58.549Z,46.37
2022-09-04T21:42:25.336Z,46.45
2022-09-04T21:45:00.809Z,46.46
2022-09-04T21:47:28.080Z,46.23
2022-09-04T21:50:15.774Z,46.19
2022-09-04T21:53:10.774Z,46.24
2022-09-04T21:59:42.519Z,46.24
2022-09-04T22:02:28.230Z,46.00
2022-09-04T22:02:39.554Z,46.54
2022-09-04T22:04:30.861Z,46.35
2022-09-04T22:09:52.175Z,46.37
2022-09-04T22:13:27.261Z,46.59
2022-09-04T22:13:43.194Z,46.40
2022-09-04T22:15:29.260Z,47.47
2022-09-04T22:18:04.858Z,46.97
2022-09-04T22:20:33.158Z,47.20
2022-09-04T22:23:28.257Z,47.34
2022-09-04T22:26:14.873Z,47.42
2022-09-04T22:28:54.749Z,47.21
2022-09-04T22:31:22.647Z,47.56
2022-09-04T22:34:15.174Z,47.31
2022-09-04T22:37:09.135Z,47.23
2022-09-04T22:39:35.700Z,47.12
2022-09-04T22:42:21.448Z,47.34
2022-09-04T22:45:20.143Z,47.71
2022-09-04T22:47:59.030Z,47.79
2022-09-04T22:50:50.344Z,47.64
2022-09-04T22:53:32.569Z,47.70
2022-09-04T22:56:23.011Z,47.73
2022-09-04T22:58:52.306Z,48.04
2022-09-04T23:01:22.467Z,48.38
2022-09-04T23:04:04.669Z,47.68
2022-09-04T23:11:26.999Z,47.98
2022-09-04T23:13:47.725Z,48.82
2022-09-04T23:13:49.987Z,48.29
2022-09-04T23:15:54.353Z,49.04
2022-09-04T23:20:00.659Z,49.20
2022-09-04T23:26:33.435Z,49.49
2022-09-04T23:26:58.314Z,49.47
2022-09-04T23:27:29.416Z,49.40
2022-09-04T23:29:59.380Z,49.51
2022-09-04T23:32:26.370Z,49.30
2022-09-04T23:34:57.740Z,49.25
2022-09-04T23:37:39.774Z,49.31
2022-09-04T23:40:12.227Z,49.26
2022-09-04T23:42:51.062Z,49.16
2022-09-04T23:45:36.745Z,49.03
2022-09-04T23:48:15.208Z,49.42
2022-09-04T23:50:45.191Z,49.05
2022-09-04T23:53:20.380Z,49.57
2022-09-04T23:55:56.164Z,49.65
2022-09-04T23:58:51.572Z,49.90
